createdAt,value
2023-01-10T00:03:48.584Z,99495.22
2023-01-10T00:08:51.447Z,99499.34
2023-01-10T00:13:55.884Z,99504.44
2023-01-10T00:18:58.564Z,99505.56
2023-01-10T00:24:13.670Z,99514.19
2023-01-10T00:29:18.271Z,99512.13
2023-01-10T00:34:21.300Z,99526.53
2023-01-10T00:39:27.418Z,99529.38
2023-01-10T00:44:32.109Z,99547.09
2023-01-10T00:49:34.982Z,99557.63
2023-01-10T00:54:37.805Z,99564.50
2023-01-10T00:59:42.058Z,99590.00
2023-01-10T01:04:44.993Z,99590.69
2023-01-10T01:10:05.538Z,99609.34
2023-01-10T01:15:10.747Z,99614.41
2023-01-10T01:20:13.727Z,99622.13
2023-01-10T01:25:16.900Z,99631.56
2023-01-10T01:30:21.201Z,99630.06
2023-01-10T01:35:25.133Z,99635.16
2023-01-10T01:40:28.025Z,99634.84
2023-01-10T01:45:40.066Z,99635.69
2023-01-10T01:50:45.813Z,99649.53
2023-01-10T01:55:48.781Z,99669.13
2023-01-10T02:00:52.973Z,99677.53
2023-01-10T02:05:55.834Z,99678.47
2023-01-10T02:11:03.899Z,99687.94
2023-01-10T02:16:08.784Z,99693.69
2023-01-10T02:21:20.193Z,99698.50
2023-01-10T02:26:40.577Z,99708.38
2023-01-10T02:32:14.741Z,99715.09
2023-01-10T02:37:21.398Z,99720.47
2023-01-10T02:42:28.904Z,99722.91
2023-01-10T02:47:37.566Z,99731.69
2023-01-10T02:52:40.431Z,99743.50
2023-01-10T02:57:48.661Z,99748.84
2023-01-10T03:03:02.875Z,99759.81
2023-01-10T03:08:14.852Z,99758.16
2023-01-10T03:13:34.611Z,99771.31
2023-01-10T03:18:49.825Z,99774.06
2023-01-10T03:23:55.601Z,99774.91
2023-01-10T03:29:02.664Z,99792.47
2023-01-10T03:34:07.105Z,99799.44
2023-01-10T03:39:17.391Z,99812.72
2023-01-10T03:44:40.533Z,99836.47
2023-01-10T03:49:48.100Z,99853.88
2023-01-10T03:54:52.030Z,99851.66
2023-01-10T03:59:58.007Z,99868.25
2023-01-10T04:05:02.273Z,99880.06
2023-01-10T04:10:05.788Z,99886.94
2023-01-10T04:15:09.479Z,99885.13
2023-01-10T04:20:14.174Z,99904.22
2023-01-10T04:25:17.159Z,99907.38
2023-01-10T04:30:20.880Z,99917.09
2023-01-10T04:35:24.989Z,99937.81
2023-01-10T04:40:32.923Z,99940.16
2023-01-10T04:45:35.754Z,99962.66
2023-01-10T04:50:39.915Z,99979.94
2023-01-10T04:55:42.927Z,99971.19
2023-01-10T05:00:45.800Z,99991.22
2023-01-10T05:05:49.852Z,99986.81
2023-01-10T05:10:57.800Z,99984.22
2023-01-10T05:16:00.771Z,100000.66
2023-01-10T05:21:06.456Z,100011.91
2023-01-10T05:26:10.636Z,100021.97
2023-01-10T05:31:14.980Z,100030.03
2023-01-10T05:36:20.684Z,100052.19
2023-01-10T05:41:23.915Z,100059.16
2023-01-10T05:46:26.814Z,100063.81
2023-01-10T05:51:31.157Z,100075.44
2023-01-10T05:56:33.864Z,100083.94
2023-01-10T06:01:36.591Z,100091.75
2023-01-10T06:06:40.724Z,100093.66
2023-01-10T06:11:43.676Z,100115.59
2023-01-10T06:16:46.462Z,100110.25
2023-01-10T06:21:50.500Z,100125.50
2023-01-10T06:26:53.355Z,100133.56
2023-01-10T06:31:56.156Z,100150.75
2023-01-10T06:37:00.237Z,100156.44
2023-01-10T06:42:03.052Z,100166.59
2023-01-10T06:47:05.907Z,100182.59
2023-01-10T06:52:10.002Z,100196.25
2023-01-10T06:57:12.787Z,100207.63
2023-01-10T07:02:15.722Z,100221.00
2023-01-10T07:07:20.027Z,100227.50
2023-01-10T07:12:23.005Z,100238.56
2023-01-10T07:17:25.820Z,100250.50
2023-01-10T07:22:30.065Z,100263.53
2023-01-10T07:27:32.987Z,100263.69
2023-01-10T07:32:35.767Z,100277.53
2023-01-10T07:37:39.925Z,100286.31
2023-01-10T07:42:42.889Z,100299.22
2023-01-10T07:47:45.719Z,100312.38
2023-01-10T07:52:50.059Z,100318.06
2023-01-10T07:57:52.888Z,100324.56
2023-01-10T08:02:56.587Z,100339.81
2023-01-10T08:08:05.398Z,100346.22
2023-01-10T08:13:18.566Z,100350.50
2023-01-10T08:18:23.597Z,100359.75
2023-01-10T08:23:27.944Z,100366.63
2023-01-10T08:28:30.693Z,100376.81
2023-01-10T08:33:33.371Z,100379.19
2023-01-10T08:38:37.464Z,100384.84
2023-01-10T08:43:40.470Z,100399.78
2023-01-10T08:48:43.173Z,100402.88
2023-01-10T08:53:47.301Z,100422.66
2023-01-10T08:58:50.065Z,100428.78
2023-01-10T09:03:53.022Z,100426.50
2023-01-10T09:08:57.242Z,100428.16
2023-01-10T09:13:59.992Z,100448.09
2023-01-10T09:19:04.321Z,100443.72
2023-01-10T09:24:08.720Z,100446.91
2023-01-10T09:29:11.405Z,100455.31
2023-01-10T09:34:14.123Z,100462.34
2023-01-10T09:39:18.329Z,100471.94
2023-01-10T09:44:37.295Z,100469.94
2023-01-10T09:49:47.215Z,100464.44
2023-01-10T09:54:52.118Z,100470.25
2023-01-10T09:59:55.021Z,100463.16
2023-01-10T10:05:09.398Z,100478.66
2023-01-10T10:10:18.370Z,100485.88
2023-01-10T10:15:25.222Z,100490.03
2023-01-10T10:20:35.817Z,100504.88
2023-01-10T10:25:54.239Z,100523.16
2023-01-10T10:31:00.326Z,100517.94
2023-01-10T10:36:06.217Z,100516.13
2023-01-10T10:41:17.274Z,100524.69
2023-01-10T10:46:20.127Z,100497.63
2023-01-10T10:51:27.923Z,100499.63
2023-01-10T10:56:31.957Z,100482.47
2023-01-10T11:01:35.139Z,100475.78
2023-01-10T11:06:40.677Z,100495.44
2023-01-10T11:11:50.179Z,100496.88
2023-01-10T11:16:52.991Z,100492.03
2023-01-10T11:21:57.956Z,100507.72
2023-01-10T11:27:04.216Z,100504.72
2023-01-10T11:32:14.951Z,100506.47
2023-01-10T11:37:25.044Z,100516.53
2023-01-10T11:42:33.084Z,100524.28
2023-01-10T11:47:41.649Z,100517.41
2023-01-10T11:52:49.369Z,100525.66
2023-01-10T11:58:01.318Z,100537.31
2023-01-10T12:03:04.679Z,100535.91
2023-01-10T12:08:09.503Z,100522.13
2023-01-10T12:13:16.378Z,100553.81
2023-01-10T12:18:19.621Z,100532.91
2023-01-10T12:23:25.195Z,100548.97
2023-01-10T12:28:30.242Z,100546.84
2023-01-10T12:33:35.489Z,100551.75
2023-01-10T12:38:59.653Z,100555.31
2023-01-10T12:44:14.908Z,100568.75
2023-01-10T12:49:22.216Z,100565.44
2023-01-10T12:54:28.035Z,100564.00
2023-01-10T12:59:38.082Z,100568.53
2023-01-10T13:04:41.398Z,100572.94
2023-01-10T13:09:44.606Z,100583.00
2023-01-10T13:14:52.934Z,100580.88
2023-01-10T13:20:38.111Z,100564.25
2023-01-10T13:25:40.846Z,100562.09
2023-01-10T13:30:44.949Z,100563.63
2023-01-10T13:35:48.932Z,100566.09
2023-01-10T13:41:00.318Z,100565.16
2023-01-10T13:46:38.342Z,100578.22
2023-01-10T13:52:19.578Z,100575.59
2023-01-10T13:57:59.012Z,100580.00
2023-01-10T14:03:03.177Z,100585.47
2023-01-10T14:08:17.978Z,100589.75
2023-01-10T14:13:23.401Z,100590.25
2023-01-10T14:18:31.577Z,100599.16
2023-01-10T14:23:36.988Z,100604.25
2023-01-10T14:28:41.995Z,100597.38
2023-01-10T14:33:46.207Z,100595.59
2023-01-10T14:38:51.239Z,100583.72
2023-01-10T14:43:55.959Z,100592.41
2023-01-10T14:49:00.981Z,100585.53
2023-01-10T14:54:05.641Z,100583.84
2023-01-10T14:59:19.007Z,100582.56
2023-01-10T15:04:25.481Z,100585.28
2023-01-10T15:09:28.940Z,100578.78
2023-01-10T15:14:33.542Z,100580.81
2023-01-10T15:19:39.427Z,100568.09
2023-01-10T15:24:42.799Z,100577.00
2023-01-10T15:29:47.065Z,100574.88
2023-01-10T15:34:52.935Z,100572.63
2023-01-10T15:39:56.053Z,100583.31
2023-01-10T15:44:59.671Z,100568.97
2023-01-10T15:50:04.629Z,100575.34
2023-01-10T15:55:22.338Z,100570.84
2023-01-10T16:00:25.191Z,100577.34
2023-01-10T16:05:29.278Z,100579.88
2023-01-10T16:10:37.008Z,100578.91
2023-01-10T16:15:42.036Z,100573.22
2023-01-10T16:20:47.224Z,100575.59
2023-01-10T16:25:53.441Z,100568.50
2023-01-10T16:30:56.446Z,100562.34
2023-01-10T16:36:00.890Z,100561.28
2023-01-10T16:41:25.410Z,100572.44
2023-01-10T16:46:28.784Z,100574.56
2023-01-10T16:51:34.136Z,100576.72
2023-01-10T16:56:36.930Z,100583.91
2023-01-10T17:01:43.617Z,100582.28
2023-01-10T17:06:47.943Z,100575.75
2023-01-10T17:11:54.405Z,100580.50
2023-01-10T17:16:57.116Z,100584.66
2023-01-10T17:22:01.343Z,100585.38
2023-01-10T17:27:04.249Z,100579.69
2023-01-10T17:32:08.275Z,100569.13
2023-01-10T17:37:12.358Z,100572.31
2023-01-10T17:42:15.840Z,100573.63
2023-01-10T17:47:20.078Z,100576.00
2023-01-10T17:52:24.341Z,100580.72
2023-01-10T17:57:27.028Z,100582.28
2023-01-10T18:02:31.110Z,100562.38
2023-01-10T18:07:35.322Z,100549.31
2023-01-10T18:12:38.688Z,100555.81
2023-01-10T18:17:41.575Z,100551.09
2023-01-10T18:23:04.892Z,100545.28
2023-01-10T18:28:07.885Z,100551.53
2023-01-10T18:33:10.641Z,100551.78
2023-01-10T18:38:14.753Z,100549.44
2023-01-10T18:43:17.711Z,100546.19
2023-01-10T18:48:23.879Z,100541.47
2023-01-10T18:53:29.276Z,100529.59
2023-01-10T18:58:34.312Z,100524.75
2023-01-10T19:03:37.102Z,100523.91
2023-01-10T19:08:42.453Z,100515.25
2023-01-10T19:13:46.013Z,100513.47
2023-01-10T19:18:50.728Z,100506.72
2023-01-10T19:23:56.788Z,100504.22
2023-01-10T19:28:59.710Z,100502.81
2023-01-10T19:34:02.680Z,100486.41
2023-01-10T19:39:07.105Z,100486.53
2023-01-10T19:44:12.950Z,100497.78
2023-01-10T19:49:17.628Z,100493.53
2023-01-10T19:54:21.856Z,100491.38
2023-01-10T19:59:24.927Z,100489.03
2023-01-10T20:04:29.991Z,100480.50
2023-01-10T20:09:34.437Z,100477.63
2023-01-10T20:14:37.329Z,100471.72
2023-01-10T20:19:40.641Z,100476.09
2023-01-10T20:24:44.748Z,100461.03
2023-01-10T20:29:47.474Z,100459.50
2023-01-10T20:34:50.988Z,100462.09
2023-01-10T20:39:55.228Z,100450.97
2023-01-10T20:44:58.001Z,100443.59
2023-01-10T20:50:00.744Z,100437.69
2023-01-10T20:55:05.750Z,100438.88
2023-01-10T21:00:10.151Z,100431.88
2023-01-10T21:05:12.929Z,100433.75
2023-01-10T21:10:18.002Z,100428.78
2023-01-10T21:15:20.757Z,100433.91
2023-01-10T21:20:23.511Z,100434.94
2023-01-10T21:25:27.676Z,100428.09
2023-01-10T21:30:30.387Z,100420.50
2023-01-10T21:35:33.264Z,100416.25
2023-01-10T21:40:37.448Z,100418.13
2023-01-10T21:45:40.171Z,100400.84
2023-01-10T21:50:44.693Z,100396.94
2023-01-10T21:55:48.867Z,100386.72
2023-01-10T22:00:55.772Z,100395.13
2023-01-10T22:05:58.776Z,100371.34
2023-01-10T22:11:07.205Z,100378.44
2023-01-10T22:16:10.579Z,100369.31
2023-01-10T22:21:15.392Z,100364.72
2023-01-10T22:26:19.493Z,100364.50
2023-01-10T22:31:22.262Z,100344.25
2023-01-10T22:36:25.031Z,100335.25
2023-01-10T22:41:29.224Z,100322.22
2023-01-10T22:46:32.085Z,100314.16
2023-01-10T22:51:35.573Z,100308.94
2023-01-10T22:56:39.661Z,100302.31
2023-01-10T23:01:43.428Z,100304.47
2023-01-10T23:06:46.350Z,100285.28
2023-01-10T23:11:50.528Z,100283.63
2023-01-10T23:16:53.311Z,100271.41
2023-01-10T23:21:56.034Z,100269.63
2023-01-10T23:27:00.114Z,100270.94
2023-01-10T23:32:02.911Z,100249.84
2023-01-10T23:37:05.694Z,100246.16
2023-01-10T23:42:10.355Z,100238.81
2023-01-10T23:47:13.109Z,100229.34
2023-01-10T23:52:15.835Z,100229.34
2023-01-10T23:57:20.180Z,100223.97
